Terminal Aerodrome Forecast
Issued by NWS Twin Cities, MN

Home | Current Version | Previous Version | Text Only | Print | Product List | Glossary Off
Versions: 1 2 3 4 5 6 7 8 9 10 11 12 13 14 15

499
FTUS43 KMPX 170712 AAA
TAFEAU
TAF AMD
KEAU 170712Z 1707/1806 14013G20KT P6SM SCT020 OVC110
      TEMPO 1707/1711 OVC020
     FM171100 16014KT P6SM OVC020
     FM171500 15011KT 6SM -DZ BR OVC012
     FM171700 15008KT 4SM -DZ BR OVC008
     FM180300 33006KT 5SM -DZ BR OVC008=

USA.gov is the U.S. government's official web portal to all federal, state and local government web resources and services.